createdAt,value
2022-08-03T00:00:23.199Z,1010.55
2022-08-03T00:01:23.218Z,1010.53
2022-08-03T00:02:23.231Z,1010.52
2022-08-03T00:03:23.326Z,1010.57
2022-08-03T00:04:23.251Z,1010.53
2022-08-03T00:05:23.265Z,1010.49
2022-08-03T00:06:23.281Z,1010.54
2022-08-03T00:07:23.288Z,1010.50
2022-08-03T00:08:23.300Z,1010.50
2022-08-03T00:09:23.314Z,1010.50
2022-08-03T00:10:23.331Z,1010.49
2022-08-03T00:11:23.346Z,1010.43
2022-08-03T00:12:23.358Z,1010.44
2022-08-03T00:13:36.107Z,1010.42
2022-08-03T00:14:23.378Z,1010.43
2022-08-03T00:15:23.396Z,1010.43
2022-08-03T00:16:23.403Z,1010.42
2022-08-03T00:17:23.422Z,1010.39
2022-08-03T00:18:23.436Z,1010.39
2022-08-03T00:19:23.447Z,1010.39
2022-08-03T00:20:23.461Z,1010.40
2022-08-03T00:21:23.474Z,1010.39
2022-08-03T00:22:23.486Z,1010.41
2022-08-03T00:23:23.493Z,1010.42
2022-08-03T00:24:23.505Z,1010.41
2022-08-03T00:25:23.518Z,1010.39
2022-08-03T00:26:23.535Z,1010.37
2022-08-03T00:27:23.552Z,1010.37
2022-08-03T00:28:26.993Z,1010.39
2022-08-03T00:29:23.571Z,1010.35
2022-08-03T00:30:23.600Z,1010.35
2022-08-03T00:31:42.215Z,1010.34
2022-08-03T00:32:24.077Z,1010.33
2022-08-03T00:33:23.628Z,1010.34
2022-08-03T00:34:36.627Z,1010.35
2022-08-03T00:35:34.408Z,1010.35
2022-08-03T00:36:23.657Z,1010.37
2022-08-03T00:37:23.671Z,1010.37
2022-08-03T00:38:24.895Z,1010.34
2022-08-03T00:39:24.504Z,1010.32
2022-08-03T00:40:23.717Z,1010.38
2022-08-03T00:41:23.718Z,1010.33
2022-08-03T00:42:23.740Z,1010.33
2022-08-03T00:43:23.745Z,1010.36
2022-08-03T00:44:23.759Z,1010.35
2022-08-03T00:45:23.777Z,1010.35
2022-08-03T00:46:23.793Z,1010.34
2022-08-03T00:47:27.839Z,1010.33
2022-08-03T00:48:33.457Z,1010.40
2022-08-03T00:49:23.889Z,1010.36
2022-08-03T00:50:26.455Z,1010.38
2022-08-03T00:51:23.844Z,1010.31
2022-08-03T00:52:23.860Z,1010.33
2022-08-03T00:53:23.870Z,1010.35
2022-08-03T01:08:27.275Z,1010.31
2022-08-03T01:09:27.288Z,1010.33
2022-08-03T01:10:27.298Z,1010.32
2022-08-03T01:11:27.319Z,1010.28
2022-08-03T01:12:27.328Z,1010.29
2022-08-03T01:13:59.197Z,1010.27
2022-08-03T01:14:27.355Z,1010.28
2022-08-03T01:15:27.359Z,1010.29
2022-08-03T01:16:35.669Z,1010.29
2022-08-03T01:17:27.389Z,1010.30
2022-08-03T01:18:27.396Z,1010.28
2022-08-03T01:19:27.413Z,1010.27
2022-08-03T01:20:27.426Z,1010.28
2022-08-03T01:21:27.430Z,1010.27
2022-08-03T01:22:27.445Z,1010.27
2022-08-03T01:23:29.008Z,1010.23
2022-08-03T01:24:27.476Z,1010.26
2022-08-03T01:25:27.487Z,1010.24
2022-08-03T01:26:27.493Z,1010.23
2022-08-03T01:27:27.512Z,1010.27
2022-08-03T01:28:27.527Z,1010.24
2022-08-03T01:29:27.530Z,1010.23
2022-08-03T01:30:27.543Z,1010.22
2022-08-03T01:31:27.569Z,1010.20
2022-08-03T01:33:03.019Z,1010.23
2022-08-03T01:33:27.582Z,1010.22
2022-08-03T01:34:27.596Z,1010.20
2022-08-03T01:35:27.612Z,1010.26
2022-08-03T01:36:27.628Z,1010.26
2022-08-03T01:37:27.638Z,1010.25
2022-08-03T01:38:27.643Z,1010.21
2022-08-03T01:39:27.655Z,1010.23
2022-08-03T01:40:27.668Z,1010.20
2022-08-03T01:41:27.689Z,1010.17
2022-08-03T01:42:27.709Z,1010.17
2022-08-03T01:44:26.680Z,1010.19
2022-08-03T01:44:30.770Z,1010.18
2022-08-03T01:45:27.731Z,1010.22
2022-08-03T01:46:27.741Z,1010.21
2022-08-03T01:47:27.761Z,1010.17
2022-08-03T01:48:27.766Z,1010.16
2022-08-03T01:49:27.841Z,1010.18
2022-08-03T01:50:27.798Z,1010.18
2022-08-03T01:51:56.685Z,1010.19
2022-08-03T01:52:27.817Z,1010.17
2022-08-03T01:53:27.835Z,1010.19
2022-08-03T01:54:27.848Z,1010.21
2022-08-03T01:55:27.859Z,1010.16
2022-08-03T01:56:27.866Z,1010.19
2022-08-03T01:57:27.885Z,1010.22
2022-08-03T01:58:27.892Z,1010.22
2022-08-03T01:59:27.903Z,1010.22
2022-08-03T02:00:27.915Z,1010.21
2022-08-03T02:01:27.973Z,1010.23
2022-08-03T02:02:33.930Z,1010.22
2022-08-03T02:03:27.954Z,1010.22
2022-08-03T02:04:27.972Z,1010.22
2022-08-03T02:05:28.988Z,1010.23
2022-08-03T02:06:59.652Z,1010.22
2022-08-03T02:07:28.000Z,1010.22
2022-08-03T02:08:28.023Z,1010.26
2022-08-03T02:09:28.035Z,1010.24
2022-08-03T02:10:35.437Z,1010.27
2022-08-03T02:11:28.053Z,1010.24
2022-08-03T02:12:28.072Z,1010.25
2022-08-03T02:13:28.083Z,1010.28
2022-08-03T02:14:28.091Z,1010.24
2022-08-03T02:15:28.108Z,1010.26
2022-08-03T02:16:28.115Z,1010.26
2022-08-03T02:17:39.263Z,1010.27
2022-08-03T02:18:28.141Z,1010.27
2022-08-03T02:19:31.345Z,1010.27
2022-08-03T02:20:28.171Z,1010.25
2022-08-03T02:21:56.912Z,1010.25
2022-08-03T02:22:28.190Z,1010.22
2022-08-03T02:23:28.200Z,1010.26
2022-08-03T02:24:29.032Z,1010.22
2022-08-03T02:25:28.231Z,1010.23
2022-08-03T02:26:28.238Z,1010.20
2022-08-03T02:27:28.256Z,1010.22
2022-08-03T02:28:28.267Z,1010.20
2022-08-03T02:29:40.406Z,1010.21
2022-08-03T02:30:28.292Z,1010.19
2022-08-03T02:33:54.163Z,1010.19
2022-08-03T02:34:54.174Z,1010.22
2022-08-03T02:35:54.196Z,1010.26
2022-08-03T02:36:54.197Z,1010.19
2022-08-03T02:37:54.210Z,1010.19
2022-08-03T02:38:54.227Z,1010.19
2022-08-03T02:39:54.241Z,1010.20
2022-08-03T02:40:54.246Z,1010.19
2022-08-03T02:41:54.257Z,1010.21
2022-08-03T02:42:54.277Z,1010.16
2022-08-03T02:44:05.659Z,1010.18
2022-08-03T02:44:54.293Z,1010.18
2022-08-03T02:45:54.304Z,1010.16
2022-08-03T02:46:54.318Z,1010.16
2022-08-03T02:47:54.944Z,1010.18
2022-08-03T02:48:54.435Z,1010.20
2022-08-03T02:49:54.420Z,1010.20
2022-08-03T02:50:54.373Z,1010.18
2022-08-03T02:51:54.389Z,1010.20
2022-08-03T02:52:54.390Z,1010.19
2022-08-03T02:53:54.400Z,1010.16
2022-08-03T02:54:54.425Z,1010.16
2022-08-03T02:55:54.432Z,1010.19
2022-08-03T02:56:54.446Z,1010.16
2022-08-03T02:57:54.457Z,1010.20
2022-08-03T02:58:54.468Z,1010.17
2022-08-03T02:59:54.483Z,1010.16
2022-08-03T03:00:54.576Z,1010.16
2022-08-03T03:01:54.506Z,1010.15
2022-08-03T03:02:54.510Z,1010.13
2022-08-03T03:03:54.531Z,1010.13
2022-08-03T03:05:52.011Z,1010.12
2022-08-03T03:05:57.654Z,1010.15
2022-08-03T03:06:54.558Z,1010.15
2022-08-03T03:07:54.571Z,1010.13
2022-08-03T03:08:59.315Z,1010.14
2022-08-03T03:11:12.222Z,1010.14
2022-08-03T03:12:12.231Z,1010.13
2022-08-03T03:13:12.242Z,1010.12
2022-08-03T03:14:12.248Z,1010.16
2022-08-03T03:15:12.267Z,1010.12
2022-08-03T03:16:12.279Z,1010.11
2022-08-03T03:17:12.293Z,1010.13
2022-08-03T03:18:12.301Z,1010.17
2022-08-03T03:19:12.308Z,1010.16
2022-08-03T03:20:12.318Z,1010.18
2022-08-03T03:21:12.332Z,1010.14
2022-08-03T03:22:12.348Z,1010.11
2022-08-03T03:23:15.192Z,1010.13
2022-08-03T03:24:12.373Z,1010.14
2022-08-03T03:25:12.379Z,1010.14
2022-08-03T03:26:12.397Z,1010.15
2022-08-03T03:27:12.403Z,1010.15
2022-08-03T03:28:12.422Z,1010.15
2022-08-03T03:30:00.395Z,1010.10
2022-08-03T03:31:00.026Z,1010.11
2022-08-03T03:32:00.820Z,1010.14
2022-08-03T03:33:00.020Z,1010.14
2022-08-03T03:34:00.039Z,1010.12
2022-08-03T03:37:50.962Z,1010.11
2022-08-03T03:38:50.967Z,1010.15
2022-08-03T03:39:50.987Z,1010.12
2022-08-03T03:40:50.992Z,1010.15
2022-08-03T03:41:51.007Z,1010.15
2022-08-03T03:42:51.020Z,1010.13
2022-08-03T03:43:51.024Z,1010.14
2022-08-03T03:44:51.038Z,1010.17
2022-08-03T03:45:51.050Z,1010.17
2022-08-03T03:46:51.067Z,1010.15
2022-08-03T03:47:51.070Z,1010.11
2022-08-03T03:48:51.082Z,1010.15
2022-08-03T03:49:51.101Z,1010.12
2022-08-03T03:50:51.113Z,1010.15
2022-08-03T03:51:51.123Z,1010.14
2022-08-03T03:52:51.127Z,1010.11
2022-08-03T03:53:51.140Z,1010.12
2022-08-03T03:56:21.261Z,1010.11
2022-08-03T04:01:30.447Z,1010.09
2022-08-03T04:06:39.637Z,1010.12
2022-08-03T04:07:39.653Z,1010.12
2022-08-03T04:08:39.666Z,1010.14
2022-08-03T04:09:39.677Z,1010.10
2022-08-03T04:10:39.689Z,1010.13
2022-08-03T04:11:39.692Z,1010.13
2022-08-03T04:12:39.705Z,1010.15
2022-08-03T04:13:39.728Z,1010.15
2022-08-03T04:14:42.550Z,1010.13
2022-08-03T04:15:39.745Z,1010.13
2022-08-03T04:45:27.241Z,1010.34
2022-08-03T05:19:52.785Z,1010.41
2022-08-03T05:21:41.790Z,1010.39
2022-08-03T05:22:40.357Z,1010.35
2022-08-03T05:23:40.368Z,1010.38
2022-08-03T05:24:40.377Z,1010.37
2022-08-03T05:25:40.397Z,1010.37
2022-08-03T05:26:40.407Z,1010.39
2022-08-03T05:27:40.412Z,1010.36
2022-08-03T05:28:40.424Z,1010.36
2022-08-03T05:29:40.440Z,1010.36
2022-08-03T05:30:40.445Z,1010.39
2022-08-03T05:31:40.462Z,1010.32
2022-08-03T05:32:40.467Z,1010.38
2022-08-03T05:33:40.481Z,1010.37
2022-08-03T05:34:40.496Z,1010.37
2022-08-03T05:35:57.424Z,1010.42
2022-08-03T05:36:40.514Z,1010.44
2022-08-03T05:37:40.532Z,1010.44
2022-08-03T05:38:40.537Z,1010.45
2022-08-03T05:39:40.547Z,1010.49
2022-08-03T05:40:40.561Z,1010.50
2022-08-03T05:41:40.580Z,1010.50
2022-08-03T05:42:40.590Z,1010.46
2022-08-03T05:43:40.604Z,1010.49
2022-08-03T05:46:27.444Z,1010.47
2022-08-03T05:46:53.227Z,1010.44
2022-08-03T05:47:53.240Z,1010.45
2022-08-03T05:48:53.312Z,1010.48
2022-08-03T05:49:53.264Z,1010.50
2022-08-03T05:52:38.415Z,1010.47
2022-08-03T05:53:38.426Z,1010.45
2022-08-03T05:54:55.833Z,1010.46
2022-08-03T05:56:36.029Z,1010.44
2022-08-03T05:57:36.035Z,1010.41
2022-08-03T05:58:36.053Z,1010.41
2022-08-03T05:59:38.451Z,1010.39
2022-08-03T06:08:11.889Z,1010.38
2022-08-03T06:09:11.906Z,1010.39
2022-08-03T06:10:35.886Z,1010.39
2022-08-03T06:11:11.931Z,1010.36
2022-08-03T06:12:14.182Z,1010.35
2022-08-03T06:13:11.954Z,1010.34
2022-08-03T06:14:11.961Z,1010.34
2022-08-03T06:15:11.973Z,1010.31
2022-08-03T06:16:11.993Z,1010.33
2022-08-03T06:17:12.003Z,1010.33
2022-08-03T06:18:12.010Z,1010.35
2022-08-03T06:19:12.020Z,1010.34
2022-08-03T06:20:12.034Z,1010.34
2022-08-03T06:21:14.772Z,1010.32
2022-08-03T06:22:12.067Z,1010.31
2022-08-03T06:23:17.690Z,1010.29
2022-08-03T06:24:12.091Z,1010.25
2022-08-03T06:25:13.040Z,1010.27
2022-08-03T06:26:12.143Z,1010.26
2022-08-03T06:27:12.124Z,1010.26
2022-08-03T06:28:23.755Z,1010.26
2022-08-03T06:29:12.160Z,1010.26
2022-08-03T06:30:12.167Z,1010.24
2022-08-03T06:31:12.179Z,1010.26
2022-08-03T06:32:12.183Z,1010.23
2022-08-03T06:33:12.198Z,1010.21
2022-08-03T06:34:33.441Z,1010.21
2022-08-03T06:35:12.229Z,1010.22
2022-08-03T06:36:12.242Z,1010.27
2022-08-03T06:37:12.249Z,1010.21
2022-08-03T06:38:12.267Z,1010.26
2022-08-03T06:39:12.274Z,1010.30
2022-08-03T06:40:13.916Z,1010.27
2022-08-03T06:41:12.300Z,1010.29
2022-08-03T06:42:12.313Z,1010.31
2022-08-03T06:43:12.689Z,1010.34
2022-08-03T06:44:12.338Z,1010.34
2022-08-03T06:45:12.353Z,1010.29
2022-08-03T06:46:12.364Z,1010.32
2022-08-03T06:47:12.383Z,1010.32
2022-08-03T06:48:12.390Z,1010.31
2022-08-03T06:49:12.459Z,1010.33
2022-08-03T06:50:17.841Z,1010.30
2022-08-03T06:51:12.433Z,1010.31
2022-08-03T06:52:12.488Z,1010.30
2022-08-03T06:53:21.196Z,1010.28
2022-08-03T06:54:12.468Z,1010.27
2022-08-03T06:55:12.490Z,1010.26
2022-08-03T06:56:12.495Z,1010.26
2022-08-03T06:57:12.515Z,1010.20
2022-08-03T06:58:12.522Z,1010.24
2022-08-03T07:00:10.593Z,1010.24
2022-08-03T07:00:12.923Z,1010.26
2022-08-03T07:01:12.610Z,1010.28
2022-08-03T07:02:12.570Z,1010.23
2022-08-03T07:03:12.592Z,1010.22
2022-08-03T07:04:12.597Z,1010.23
2022-08-03T07:05:12.614Z,1010.23
2022-08-03T07:06:12.631Z,1010.26
2022-08-03T07:07:12.637Z,1010.26
2022-08-03T07:08:12.651Z,1010.27
2022-08-03T07:09:12.672Z,1010.27
2022-08-03T07:10:12.683Z,1010.29
2022-08-03T07:11:12.690Z,1010.29
2022-08-03T07:12:12.715Z,1010.30
2022-08-03T07:13:12.718Z,1010.29
2022-08-03T07:14:12.732Z,1010.26
2022-08-03T07:15:20.626Z,1010.32
2022-08-03T07:16:12.763Z,1010.31
2022-08-03T07:17:12.776Z,1010.28
2022-08-03T07:18:12.791Z,1010.33
2022-08-03T07:19:12.797Z,1010.32
2022-08-03T07:20:12.811Z,1010.29
2022-08-03T07:21:12.825Z,1010.32
2022-08-03T07:22:12.891Z,1010.29
2022-08-03T07:23:18.818Z,1010.27
2022-08-03T07:24:12.864Z,1010.23
2022-08-03T07:25:12.885Z,1010.23
2022-08-03T07:26:12.892Z,1010.24
2022-08-03T07:27:12.904Z,1010.25
2022-08-03T07:28:12.927Z,1010.25
2022-08-03T07:29:15.000Z,1010.24
2022-08-03T07:30:12.953Z,1010.23
2022-08-03T07:31:12.964Z,1010.23
2022-08-03T07:32:12.973Z,1010.24
2022-08-03T07:33:12.985Z,1010.22
2022-08-03T07:34:13.020Z,1010.23
2022-08-03T07:35:24.980Z,1010.21
2022-08-03T07:36:13.034Z,1010.21
2022-08-03T07:37:13.047Z,1010.22
2022-08-03T07:38:13.060Z,1010.25
2022-08-03T07:39:17.768Z,1010.23
2022-08-03T07:40:13.080Z,1010.28
2022-08-03T07:41:13.104Z,1010.30
2022-08-03T07:42:13.109Z,1010.27
2022-08-03T07:43:13.129Z,1010.30
2022-08-03T07:44:13.145Z,1010.28
2022-08-03T07:45:16.736Z,1010.24
2022-08-03T07:46:13.162Z,1010.19
2022-08-03T07:47:22.278Z,1010.22
2022-08-03T07:48:13.190Z,1010.21
2022-08-03T07:49:13.273Z,1010.20
2022-08-03T07:50:13.226Z,1010.20
2022-08-03T07:51:13.232Z,1010.17
2022-08-03T07:52:13.248Z,1010.20
2022-08-03T07:53:13.259Z,1010.18
2022-08-03T07:54:13.279Z,1010.18
2022-08-03T07:55:13.294Z,1010.18
2022-08-03T07:56:13.306Z,1010.17
2022-08-03T07:57:13.323Z,1010.14
2022-08-03T07:58:13.338Z,1010.13
2022-08-03T07:59:13.343Z,1010.13
2022-08-03T08:00:13.359Z,1010.13
2022-08-03T08:01:15.173Z,1010.17
2022-08-03T08:02:13.394Z,1010.17
2022-08-03T08:03:13.406Z,1010.15
2022-08-03T08:04:13.415Z,1010.16
2022-08-03T08:05:13.427Z,1010.10
2022-08-03T08:06:13.450Z,1010.13
2022-08-03T08:07:13.462Z,1010.09
2022-08-03T08:08:13.477Z,1010.10
2022-08-03T08:09:13.486Z,1010.08
2022-08-03T08:10:13.556Z,1010.06
2022-08-03T08:11:13.520Z,1010.10
2022-08-03T08:12:14.954Z,1010.05
2022-08-03T08:13:13.543Z,1010.08
2022-08-03T08:14:13.558Z,1010.06
2022-08-03T08:15:13.570Z,1010.06
2022-08-03T08:16:13.594Z,1010.06
2022-08-03T08:17:13.617Z,1010.09
2022-08-03T08:18:13.621Z,1010.07
2022-08-03T08:19:13.628Z,1010.03
2022-08-03T08:20:13.647Z,1009.99
2022-08-03T08:21:13.657Z,1010.00
2022-08-03T08:22:13.733Z,1009.98
2022-08-03T08:23:42.700Z,1009.98
2022-08-03T08:24:18.066Z,1009.99
2022-08-03T08:25:13.721Z,1009.99
2022-08-03T08:26:13.727Z,1010.02
2022-08-03T08:27:13.749Z,1010.04
2022-08-03T08:28:29.234Z,1009.97
2022-08-03T08:29:13.772Z,1010.00
2022-08-03T08:30:18.756Z,1010.01
2022-08-03T08:31:13.800Z,1010.04
2022-08-03T08:32:13.821Z,1009.99
2022-08-03T08:33:23.085Z,1009.96
2022-08-03T08:34:13.845Z,1010.01
2022-08-03T08:35:13.859Z,1009.99
2022-08-03T08:36:15.607Z,1009.97
2022-08-03T08:37:13.898Z,1010.00
2022-08-03T08:38:13.904Z,1009.99
2022-08-03T08:39:13.919Z,1009.97
2022-08-03T08:40:13.933Z,1009.97
2022-08-03T08:41:13.953Z,1010.03
2022-08-03T08:42:13.985Z,1010.04
2022-08-03T08:43:13.978Z,1010.04
2022-08-03T08:44:13.997Z,1010.05
2022-08-03T08:45:14.017Z,1010.05
2022-08-03T08:47:51.095Z,1010.05
2022-08-03T08:48:39.152Z,1010.02
2022-08-03T08:49:49.486Z,1009.97
2022-08-03T08:50:39.192Z,1009.94
2022-08-03T08:52:54.444Z,1009.93
2022-08-03T08:53:51.839Z,1009.95
2022-08-03T08:54:51.862Z,1010.01
2022-08-03T08:55:59.796Z,1009.98
2022-08-03T09:03:39.568Z,1009.94
2022-08-03T15:41:00.605Z,1007.71
2022-08-03T15:42:00.623Z,1007.73
2022-08-03T15:43:00.652Z,1007.74
2022-08-03T15:44:00.664Z,1007.77
2022-08-03T15:45:01.097Z,1007.71
2022-08-03T15:46:30.306Z,1007.69
2022-08-03T15:47:00.733Z,1007.66
2022-08-03T15:48:03.375Z,1007.69
2022-08-03T15:49:03.792Z,1007.66
2022-08-03T15:50:00.794Z,1007.70
2022-08-03T15:51:00.816Z,1007.69
2022-08-03T15:52:00.833Z,1007.68
2022-08-03T15:53:00.846Z,1007.69
2022-08-03T15:54:00.876Z,1007.68
2022-08-03T15:55:00.888Z,1007.65
2022-08-03T15:56:00.921Z,1007.64
2022-08-03T15:57:00.935Z,1007.64
2022-08-03T15:59:09.526Z,1007.67
2022-08-03T15:59:12.442Z,1007.66
2022-08-03T16:00:00.991Z,1007.63
2022-08-03T16:01:01.045Z,1007.64
2022-08-03T16:02:01.101Z,1007.64
2022-08-03T16:03:01.055Z,1007.58
2022-08-03T16:04:01.077Z,1007.59
2022-08-03T16:05:01.100Z,1007.62
2022-08-03T16:06:01.118Z,1007.57
2022-08-03T16:07:01.136Z,1007.60
2022-08-03T16:08:04.303Z,1007.59
2022-08-03T16:09:01.174Z,1007.55
2022-08-03T16:10:01.202Z,1007.51
2022-08-03T16:11:01.220Z,1007.53
2022-08-03T16:12:01.234Z,1007.52
2022-08-03T16:13:01.264Z,1007.52
2022-08-03T16:14:13.002Z,1007.55
2022-08-03T16:15:01.308Z,1007.52
2022-08-03T16:16:01.324Z,1007.50
2022-08-03T16:17:01.342Z,1007.50
2022-08-03T16:18:01.364Z,1007.51
2022-08-03T16:19:05.355Z,1007.50
2022-08-03T16:20:02.657Z,1007.51
2022-08-03T16:21:01.417Z,1007.51
2022-08-03T16:22:01.446Z,1007.51
2022-08-03T16:23:03.370Z,1007.48
2022-08-03T16:24:01.479Z,1007.50
2022-08-03T16:25:01.497Z,1007.47
2022-08-03T16:26:03.348Z,1007.50
2022-08-03T16:27:01.677Z,1007.49
2022-08-03T16:28:07.829Z,1007.48
2022-08-03T16:29:01.588Z,1007.46
2022-08-03T16:30:01.609Z,1007.49
2022-08-03T16:31:01.629Z,1007.47
2022-08-03T16:32:04.078Z,1007.47
2022-08-03T16:33:01.661Z,1007.43
2022-08-03T16:34:01.680Z,1007.44
2022-08-03T16:35:01.703Z,1007.44
2022-08-03T16:36:01.721Z,1007.43
2022-08-03T16:37:16.561Z,1007.44
2022-08-03T16:38:05.379Z,1007.43
2022-08-03T16:39:01.866Z,1007.42
2022-08-03T16:40:01.807Z,1007.41
2022-08-03T16:41:01.818Z,1007.39
2022-08-03T16:42:01.978Z,1007.39
2022-08-03T16:43:01.860Z,1007.44
2022-08-03T16:44:04.364Z,1007.45
2022-08-03T16:45:01.906Z,1007.44
2022-08-03T16:46:01.925Z,1007.43
2022-08-03T16:47:01.940Z,1007.45
2022-08-03T16:48:05.585Z,1007.47
2022-08-03T16:49:01.978Z,1007.50
2022-08-03T16:50:05.802Z,1007.50
2022-08-03T16:52:34.682Z,1007.48
2022-08-03T16:54:05.278Z,1007.50
2022-08-03T16:54:34.720Z,1007.49
2022-08-03T16:55:48.394Z,1007.45
2022-08-03T16:56:36.393Z,1007.46
2022-08-03T16:57:58.424Z,1007.48
2022-08-03T16:58:42.314Z,1007.50
2022-08-03T16:59:36.575Z,1007.50
2022-08-03T17:07:19.601Z,1007.50
2022-08-03T17:08:26.500Z,1007.50
2022-08-03T17:09:20.657Z,1007.51
2022-08-03T17:10:21.932Z,1007.50
2022-08-03T17:11:19.390Z,1007.50
2022-08-03T17:12:19.410Z,1007.55
2022-08-03T17:13:22.511Z,1007.51
2022-08-03T17:14:22.130Z,1007.51
2022-08-03T17:15:19.459Z,1007.52
2022-08-03T17:16:19.479Z,1007.50
2022-08-03T17:17:19.496Z,1007.51
2022-08-03T17:18:21.980Z,1007.51
2022-08-03T17:19:19.547Z,1007.52
2022-08-03T17:20:19.565Z,1007.53
2022-08-03T17:21:19.573Z,1007.52
2022-08-03T17:22:19.901Z,1007.53
2022-08-03T17:23:34.325Z,1007.53
2022-08-03T17:24:19.823Z,1007.53
2022-08-03T17:25:22.127Z,1007.55
2022-08-03T17:26:21.982Z,1007.56
2022-08-03T17:28:48.393Z,1007.53
2022-08-03T17:28:49.703Z,1007.52
2022-08-03T17:29:19.733Z,1007.53
2022-08-03T17:30:20.269Z,1007.53
2022-08-03T17:31:23.591Z,1007.50
2022-08-03T17:32:21.372Z,1007.53
2022-08-03T17:33:20.458Z,1007.49
2022-08-03T17:34:19.826Z,1007.51
2022-08-03T17:35:20.917Z,1007.55
2022-08-03T17:36:19.910Z,1007.54
2022-08-03T17:37:50.460Z,1007.54
2022-08-03T17:38:22.852Z,1007.54
2022-08-03T17:39:31.177Z,1007.51
2022-08-03T17:40:19.990Z,1007.56
2022-08-03T17:41:19.954Z,1007.59
2022-08-03T17:42:30.542Z,1007.54
2022-08-03T17:44:12.872Z,1007.54
2022-08-03T17:44:33.116Z,1007.56
2022-08-03T17:45:20.020Z,1007.59
2022-08-03T17:46:20.039Z,1007.59
2022-08-03T17:47:20.058Z,1007.60
2022-08-03T17:48:20.083Z,1007.60
2022-08-03T17:49:20.093Z,1007.55
2022-08-03T17:50:24.047Z,1007.61
2022-08-03T17:51:20.130Z,1007.58
2022-08-03T17:52:20.460Z,1007.58
2022-08-03T17:53:24.328Z,1007.57
2022-08-03T17:54:20.186Z,1007.63
2022-08-03T17:55:57.370Z,1007.59
2022-08-03T17:56:38.744Z,1007.60
2022-08-03T17:57:22.477Z,1007.59
2022-08-03T17:58:20.896Z,1007.59
2022-08-03T17:59:50.565Z,1007.55
2022-08-03T18:00:20.301Z,1007.55
2022-08-03T18:01:57.861Z,1007.59
2022-08-03T18:02:29.942Z,1007.61
2022-08-03T18:03:20.771Z,1007.62
2022-08-03T18:04:20.373Z,1007.59
2022-08-03T18:05:21.678Z,1007.59
2022-08-03T18:06:28.525Z,1007.56
2022-08-03T18:07:20.422Z,1007.59
2022-08-03T18:08:20.440Z,1007.58
2022-08-03T18:10:04.315Z,1007.61
2022-08-03T18:10:20.477Z,1007.61
2022-08-03T18:11:20.503Z,1007.64
2022-08-03T18:12:22.313Z,1007.63
2022-08-03T18:13:20.535Z,1007.65
2022-08-03T18:14:20.548Z,1007.64
2022-08-03T18:15:21.288Z,1007.61
2022-08-03T18:16:20.583Z,1007.63
2022-08-03T18:17:20.608Z,1007.67
2022-08-03T18:18:32.315Z,1007.69
2022-08-03T18:19:20.637Z,1007.72
2022-08-03T18:20:32.966Z,1007.73
2022-08-03T18:21:20.671Z,1007.67
2022-08-03T18:22:21.037Z,1007.74
2022-08-03T18:23:36.519Z,1007.70
2022-08-03T18:24:20.727Z,1007.73
2022-08-03T18:25:42.746Z,1007.69
2022-08-03T18:26:20.770Z,1007.73
2022-08-03T18:27:20.787Z,1007.73
2022-08-03T18:28:23.211Z,1007.74
2022-08-03T18:29:20.823Z,1007.73
2022-08-03T18:30:20.841Z,1007.74
2022-08-03T18:32:00.452Z,1007.73
2022-08-03T18:32:20.876Z,1007.74
2022-08-03T18:34:16.859Z,1007.75
2022-08-03T18:34:32.990Z,1007.78
2022-08-03T18:35:20.927Z,1007.75
2022-08-03T18:36:21.773Z,1007.79
2022-08-03T18:37:24.751Z,1007.77
2022-08-03T18:38:20.974Z,1007.78
2022-08-03T18:39:21.081Z,1007.76
2022-08-03T18:40:21.126Z,1007.77
2022-08-03T18:41:33.672Z,1007.81
2022-08-03T18:42:25.712Z,1007.83
2022-08-03T18:43:21.066Z,1007.81
2022-08-03T18:44:53.276Z,1007.83
2022-08-03T18:45:55.919Z,1007.85
2022-08-03T18:46:21.119Z,1007.86
2022-08-03T18:47:21.136Z,1007.86
2022-08-03T18:48:21.152Z,1007.89
2022-08-03T18:49:21.163Z,1007.89
2022-08-03T18:50:21.183Z,1007.92
2022-08-03T18:51:28.796Z,1007.91
2022-08-03T18:52:21.426Z,1007.91
2022-08-03T18:53:22.657Z,1007.92
2022-08-03T18:54:51.791Z,1007.92
2022-08-03T18:55:32.878Z,1007.90
2022-08-03T18:56:21.295Z,1007.89
2022-08-03T18:57:21.302Z,1007.92
2022-08-03T18:58:21.326Z,1007.97
2022-08-03T18:59:30.018Z,1007.93
2022-08-03T19:00:24.255Z,1007.93
2022-08-03T19:01:59.875Z,1007.95
2022-08-03T19:02:21.614Z,1008.00
2022-08-03T19:03:22.160Z,1007.99
2022-08-03T19:04:24.282Z,1008.01
2022-08-03T19:05:21.665Z,1008.02
2022-08-03T19:06:21.465Z,1008.07
2022-08-03T19:07:22.270Z,1008.05
2022-08-03T19:08:21.492Z,1008.09
2022-08-03T19:09:21.507Z,1008.10
2022-08-03T19:10:21.535Z,1008.12
2022-08-03T19:11:21.548Z,1008.12
2022-08-03T19:12:32.346Z,1008.12
2022-08-03T19:13:21.583Z,1008.09
2022-08-03T19:14:21.592Z,1008.12
2022-08-03T19:15:36.791Z,1008.14
2022-08-03T19:16:21.628Z,1008.15
2022-08-03T19:17:21.674Z,1008.20
2022-08-03T19:18:21.668Z,1008.18
2022-08-03T19:19:21.684Z,1008.19
2022-08-03T19:20:21.695Z,1008.20
2022-08-03T19:21:21.711Z,1008.22
2022-08-03T19:22:22.122Z,1008.24
2022-08-03T19:23:21.744Z,1008.26
2022-08-03T19:24:21.762Z,1008.22
2022-08-03T19:25:34.365Z,1008.24
2022-08-03T19:26:30.856Z,1008.23
2022-08-03T19:27:26.770Z,1008.27
2022-08-03T19:28:21.828Z,1008.22
2022-08-03T19:29:22.373Z,1008.27
2022-08-03T19:30:26.110Z,1008.31
2022-08-03T19:31:21.877Z,1008.28
2022-08-03T19:32:22.322Z,1008.27
2022-08-03T19:33:22.814Z,1008.27
2022-08-03T19:34:21.930Z,1008.26
2022-08-03T19:35:46.951Z,1008.22
2022-08-03T19:36:26.292Z,1008.22
2022-08-03T19:37:22.163Z,1008.20
2022-08-03T19:38:28.579Z,1008.23
2022-08-03T19:39:22.070Z,1008.24
2022-08-03T19:40:22.033Z,1008.27
2022-08-03T19:41:22.052Z,1008.26
2022-08-03T19:42:23.132Z,1008.26
2022-08-03T19:43:22.089Z,1008.26
2022-08-03T19:44:22.099Z,1008.25
2022-08-03T19:45:22.110Z,1008.22
2022-08-03T19:46:22.143Z,1008.22
2022-08-03T19:47:22.144Z,1008.25
2022-08-03T19:48:22.257Z,1008.22
2022-08-03T19:49:22.176Z,1008.22
2022-08-03T19:50:22.195Z,1008.21
2022-08-03T19:51:59.027Z,1008.19
2022-08-03T19:52:24.361Z,1008.25
2022-08-03T19:53:22.247Z,1008.23
2022-08-03T19:54:29.310Z,1008.24
2022-08-03T19:55:22.283Z,1008.22
2022-08-03T19:56:22.291Z,1008.25
2022-08-03T19:57:22.625Z,1008.24
2022-08-03T19:58:28.587Z,1008.24
2022-08-03T19:59:22.348Z,1008.24
2022-08-03T20:00:26.389Z,1008.28
2022-08-03T20:01:22.379Z,1008.25
2022-08-03T20:02:27.249Z,1008.22
2022-08-03T20:03:24.862Z,1008.26
2022-08-03T20:04:22.430Z,1008.26
2022-08-03T20:05:22.527Z,1008.25
2022-08-03T20:06:22.461Z,1008.27
2022-08-03T20:07:23.632Z,1008.26
2022-08-03T20:08:22.485Z,1008.26
2022-08-03T20:09:22.501Z,1008.25
2022-08-03T20:10:22.523Z,1008.24
2022-08-03T20:11:28.458Z,1008.25
2022-08-03T20:12:27.811Z,1008.28
2022-08-03T20:13:22.565Z,1008.25
2022-08-03T20:14:26.543Z,1008.28
2022-08-03T20:15:31.791Z,1008.27
2022-08-03T20:16:22.615Z,1008.28
2022-08-03T20:17:22.631Z,1008.31
2022-08-03T20:18:22.653Z,1008.29
2022-08-03T20:19:22.663Z,1008.30
2022-08-03T20:21:22.696Z,1008.30
2022-08-03T20:22:23.084Z,1008.29
2022-08-03T20:23:22.813Z,1008.30
2022-08-03T20:24:24.488Z,1008.29
2022-08-03T20:25:22.760Z,1008.28
2022-08-03T20:26:22.775Z,1008.30
2022-08-03T20:27:22.791Z,1008.34
2022-08-03T20:28:22.808Z,1008.30
2022-08-03T20:29:22.825Z,1008.32
2022-08-03T20:30:27.276Z,1008.31
2022-08-03T20:31:32.471Z,1008.26
2022-08-03T20:32:24.447Z,1008.27
2022-08-03T20:33:27.896Z,1008.29
2022-08-03T20:34:22.905Z,1008.29
2022-08-03T20:35:22.921Z,1008.30
2022-08-03T20:36:22.935Z,1008.29
2022-08-03T20:37:22.951Z,1008.28
2022-08-03T20:38:27.323Z,1008.30
2022-08-03T20:39:23.019Z,1008.29
2022-08-03T20:40:23.006Z,1008.30
2022-08-03T20:41:23.021Z,1008.31
2022-08-03T20:42:23.211Z,1008.29
2022-08-03T20:43:23.054Z,1008.32
2022-08-03T20:44:25.622Z,1008.32
2022-08-03T20:45:59.125Z,1008.32
2022-08-03T20:46:31.719Z,1008.33